Time;durP1;ratioP1;P1;durP2;ratioP2;P2;SDS_P1;SDS_P2;PMS_P1;PMS_P2;Temp;Humidity;BMP_temperature;BMP_pressure;BME280_temperature;BME280_humidity;BME280_pressure;Samples;Min_cycle;Max_cycle;Signal;HPM_P1;HPM_P2
2022/10/29 00:00:58;;;;;;;1.50;0.50;;;26.20;41.20;;;;;;5055131;28;20773;-77
2022/10/29 00:03:25;;;;;;;1.50;0.50;;;26.10;43.00;;;;;;5055206;28;20542;-76
2022/10/29 00:06:08;;;;;;;1.83;0.53;;;26.30;44.20;;;;;;5055018;28;20268;-77
2022/10/29 00:08:37;;;;;;;2.67;0.50;;;26.90;41.70;;;;;;5055454;28;20582;-76
2022/10/29 00:11:10;;;;;;;1.43;0.60;;;27.00;42.80;;;;;;5056869;28;20631;-73
2022/10/29 00:13:38;;;;;;;4.93;0.50;;;27.10;40.80;;;;;;5055432;28;20520;-76
2022/10/29 00:16:11;;;;;;;0.90;0.60;;;27.40;41.00;;;;;;5055166;28;20176;-76
2022/10/29 00:18:39;;;;;;;1.03;0.40;;;27.00;37.20;;;;;;5055203;28;20626;-75
2022/10/29 00:21:11;;;;;;;6.30;0.70;;;26.90;38.10;;;;;;5054758;28;20208;-76
2022/10/29 00:23:39;;;;;;;2.70;0.50;;;27.10;38.50;;;;;;5054898;28;20208;-74
2022/10/29 00:26:06;;;;;;;1.63;0.30;;;27.50;36.90;;;;;;5054764;28;20715;-69
2022/10/29 00:28:34;;;;;;;2.00;0.80;;;27.20;34.00;;;;;;5054894;28;20212;-69
2022/10/29 00:31:06;;;;;;;0.57;0.30;;;27.00;36.60;;;;;;5054774;28;20187;-70
2022/10/29 00:33:34;;;;;;;1.00;0.40;;;27.30;38.80;;;;;;5054438;28;20173;-72
2022/10/29 00:36:06;;;;;;;0.57;0.30;;;27.30;35.70;;;;;;5054687;28;20169;-69
2022/10/29 00:38:35;;;;;;;0.87;0.50;;;27.70;34.10;;;;;;5054535;28;20165;-76
2022/10/29 00:41:08;;;;;;;2.73;0.40;;;27.30;32.30;;;;;;5055947;28;20227;-69
2022/10/29 00:43:37;;;;;;;0.93;0.60;;;27.60;35.70;;;;;;5058286;28;20280;-76
2022/10/29 00:46:34;;;;;;;4.87;0.50;;;28.00;37.00;;;;;;5060355;28;20703;-75
2022/10/29 00:49:03;;;;;;;7.97;0.70;;;28.00;38.30;;;;;;5060355;28;20181;-75
2022/10/29 00:51:31;;;;;;;4.00;0.40;;;28.10;32.90;;;;;;5061288;28;20177;-75
2022/10/29 00:54:14;;;;;;;7.67;1.20;;;27.20;32.50;;;;;;5061227;28;20165;-75
2022/10/29 00:57:11;;;;;;;5.73;0.60;;;26.40;32.00;;;;;;5060753;28;20179;-76
2022/10/29 00:59:40;;;;;;;4.63;0.60;;;25.90;34.30;;;;;;5051984;28;20188;-75
2022/10/29 01:02:07;;;;;;;2.53;0.53;;;26.30;35.40;;;;;;5060781;28;20312;-76
2022/10/29 01:04:35;;;;;;;2.97;0.57;;;26.50;31.80;;;;;;5060983;28;20225;-76
2022/10/29 01:07:04;;;;;;;0.50;0.40;;;26.40;32.20;;;;;;5060486;28;20177;-75
2022/10/29 01:09:31;;;;;;;11.47;0.80;;;26.80;33.00;;;;;;5064427;28;20169;-75
2022/10/29 01:12:14;;;;;;;1.83;0.40;;;26.60;31.80;;;;;;5067471;28;20198;-76
2022/10/29 01:14:56;;;;;;;4.73;0.40;;;26.40;31.30;;;;;;5066941;28;20211;-75
2022/10/29 01:17:45;;;;;;;3.93;0.50;;;26.60;31.00;;;;;;5065452;28;20173;-76
2022/10/29 01:20:57;;;;;;;2.67;0.40;;;27.10;33.50;;;;;;5062527;28;20212;-76
2022/10/29 01:23:42;;;;;;;4.17;0.60;;;27.60;31.70;;;;;;5060073;28;20279;-76
2022/10/29 01:26:27;;;;;;;0.57;0.30;;;27.60;31.10;;;;;;5061680;28;20184;-73
2022/10/29 01:29:21;;;;;;;4.00;0.60;;;27.70;30.30;;;;;;5060826;28;20169;-74
2022/10/29 01:31:54;;;;;;;1.57;0.60;;;28.00;30.90;;;;;;5060676;28;20164;-76
2022/10/29 01:34:31;;;;;;;2.47;0.40;;;27.90;28.20;;;;;;5059511;28;20188;-76
2022/10/29 01:37:30;;;;;;;3.73;0.50;;;28.20;27.90;;;;;;5061622;28;20168;-77
2022/10/29 01:40:31;;;;;;;1.80;0.50;;;28.50;28.60;;;;;;5057481;28;20185;-76
2022/10/29 01:43:56;;;;;;;1.47;0.40;;;28.60;28.70;;;;;;5061492;28;20180;-77
2022/10/29 01:46:42;;;;;;;0.40;0.30;;;28.70;28.30;;;;;;5009056;28;20185;-75
2022/10/29 01:49:15;;;;;;;4.73;0.60;;;28.70;26.80;;;;;;5039632;28;20234;-74
2022/10/29 01:52:04;;;;;;;1.60;0.47;;;28.20;26.20;;;;;;5056022;28;20263;-75
2022/10/29 01:54:31;;;;;;;0.73;0.30;;;28.00;25.40;;;;;;5060456;28;20195;-77
2022/10/29 01:57:00;;;;;;;0.90;0.30;;;28.00;24.90;;;;;;5060459;28;20578;-78
2022/10/29 01:59:30;;;;;;;1.57;0.40;;;28.00;22.70;;;;;;5060099;28;20191;-76
2022/10/29 02:02:24;;;;;;;1.57;0.97;;;28.00;24.20;;;;;;5059647;28;20266;-75
2022/10/29 02:04:51;;;;;;;1.60;0.40;;;28.50;27.50;;;;;;5060403;28;20180;-75
2022/10/29 02:07:35;;;;;;;4.80;0.70;;;28.60;26.90;;;;;;5058367;28;20184;-75
2022/10/29 02:10:24;;;;;;;3.13;0.67;;;28.30;26.50;;;;;;5059664;28;20176;-77
2022/10/29 02:12:53;;;;;;;1.40;0.40;;;28.50;24.60;;;;;;5075749;28;20197;-76
2022/10/29 02:15:39;;;;;;;0.60;0.30;;;28.30;21.90;;;;;;5059312;28;20214;-76
2022/10/29 02:18:08;;;;;;;3.07;0.37;;;28.20;22.90;;;;;;5060156;28;20211;-76
2022/10/29 02:20:42;;;;;;;0.40;0.40;;;28.40;25.20;;;;;;5060198;28;20212;-74
2022/10/29 02:23:09;;;;;;;0.73;0.40;;;28.70;25.50;;;;;;5059648;28;20191;-76
2022/10/29 02:25:37;;;;;;;1.27;0.40;;;28.50;22.70;;;;;;5059562;28;20177;-76
2022/10/29 02:28:05;;;;;;;4.23;0.50;;;28.30;22.30;;;;;;5058610;28;20204;-77
2022/10/29 02:30:32;;;;;;;1.90;0.30;;;28.40;22.70;;;;;;5059079;28;20184;-76
2022/10/29 02:32:59;;;;;;;1.03;0.40;;;28.40;21.40;;;;;;5059240;28;20187;-76
2022/10/29 02:35:27;;;;;;;0.83;0.30;;;28.00;23.60;;;;;;5058888;28;20259;-75
2022/10/29 02:37:54;;;;;;;2.53;0.47;;;28.20;22.80;;;;;;5058819;28;20215;-75
2022/10/29 02:40:22;;;;;;;1.37;0.40;;;28.30;25.30;;;;;;5057768;28;20253;-77
2022/10/29 02:42:49;;;;;;;1.00;0.40;;;28.40;23.80;;;;;;5060567;28;20189;-75
2022/10/29 02:45:17;;;;;;;1.73;0.50;;;28.60;24.30;;;;;;5063889;28;20631;-75
2022/10/29 02:47:44;;;;;;;0.30;0.30;;;28.40;24.30;;;;;;5063350;28;20248;-73
2022/10/29 02:50:11;;;;;;;0.37;0.30;;;28.30;20.90;;;;;;5057865;28;20234;-76
2022/10/29 02:52:40;;;;;;;1.70;0.60;;;28.30;21.90;;;;;;5056625;28;20211;-76
2022/10/29 02:55:07;;;;;;;2.10;0.70;;;28.30;21.50;;;;;;5056299;28;20263;-76
2022/10/29 02:57:35;;;;;;;2.63;0.40;;;28.20;23.80;;;;;;5057178;28;20180;-75
2022/10/29 03:00:03;;;;;;;3.03;0.40;;;28.10;23.30;;;;;;5054713;28;20244;-76
2022/10/29 03:02:30;;;;;;;0.70;0.40;;;27.90;22.80;;;;;;5056438;28;20606;-77
2022/10/29 03:04:58;;;;;;;0.60;0.40;;;28.20;21.30;;;;;;5056948;28;20172;-76
2022/10/29 03:07:25;;;;;;;2.63;0.43;;;28.00;22.20;;;;;;5056100;28;20188;-76
2022/10/29 03:09:52;;;;;;;2.03;0.43;;;27.80;20.80;;;;;;5056666;28;20176;-77
2022/10/29 03:12:20;;;;;;;3.03;0.57;;;27.90;20.30;;;;;;5056108;28;20168;-75
2022/10/29 03:14:47;;;;;;;2.13;0.47;;;28.20;23.50;;;;;;5056243;28;20173;-77
2022/10/29 03:17:14;;;;;;;1.83;0.30;;;28.10;21.50;;;;;;5054925;28;20192;-76
2022/10/29 03:19:42;;;;;;;2.27;0.60;;;28.20;20.20;;;;;;5055965;28;20242;-75
2022/10/29 03:22:09;;;;;;;1.73;0.40;;;27.90;21.50;;;;;;5054448;28;20209;-76
2022/10/29 03:24:36;;;;;;;0.87;0.40;;;28.10;23.60;;;;;;5055926;28;20268;-76
2022/10/29 03:27:04;;;;;;;3.40;0.50;;;28.10;23.30;;;;;;5056014;28;20177;-74
2022/10/29 03:29:31;;;;;;;2.50;0.30;;;28.20;20.90;;;;;;5056216;28;20180;-75
2022/10/29 03:31:59;;;;;;;1.60;0.73;;;28.50;22.70;;;;;;5054694;28;20187;-76
2022/10/29 03:34:26;;;;;;;2.07;0.60;;;28.80;23.60;;;;;;5055895;28;20176;-74
2022/10/29 03:36:55;;;;;;;1.17;0.40;;;28.90;22.10;;;;;;5056474;28;20215;-76
2022/10/29 03:39:22;;;;;;;2.30;0.40;;;28.60;19.70;;;;;;5058610;28;20264;-77
2022/10/29 03:41:49;;;;;;;2.27;0.60;;;28.80;20.10;;;;;;5059342;28;20229;-77
2022/10/29 03:44:17;;;;;;;0.83;0.30;;;28.60;17.40;;;;;;5059518;28;20187;-70
2022/10/29 03:46:44;;;;;;;2.53;1.00;;;28.60;18.90;;;;;;5073848;28;20187;-70
2022/10/29 03:49:12;;;;;;;0.53;0.30;;;28.70;18.90;;;;;;5074481;28;20180;-69
2022/10/29 03:51:39;;;;;;;11.80;0.87;;;28.70;19.30;;;;;;5075128;28;20249;-70
2022/10/29 03:54:07;;;;;;;2.40;0.50;;;28.60;19.00;;;;;;5070377;28;20230;-73
2022/10/29 03:56:34;;;;;;;3.13;0.50;;;28.80;17.90;;;;;;5073417;28;20172;-72
2022/10/29 03:59:01;;;;;;;3.50;0.50;;;28.80;18.40;;;;;;5067275;28;20619;-71
2022/10/29 04:01:29;;;;;;;3.70;0.70;;;28.70;16.40;;;;;;5053402;28;20286;-71
2022/10/29 04:03:56;;;;;;;2.50;0.40;;;28.80;17.40;;;;;;5061431;28;20665;-72
2022/10/29 04:06:24;;;;;;;0.60;0.40;;;28.60;15.60;;;;;;5073566;28;20638;-72
2022/10/29 04:08:51;;;;;;;4.10;0.60;;;28.30;15.20;;;;;;5073595;28;20179;-72
2022/10/29 04:11:18;;;;;;;2.30;0.67;;;28.30;16.10;;;;;;5073454;28;20539;-72
2022/10/29 04:13:46;;;;;;;3.03;0.83;;;28.40;16.20;;;;;;5073058;28;20184;-71
2022/10/29 04:16:13;;;;;;;2.50;0.50;;;28.50;15.90;;;;;;5088749;28;20524;-71
2022/10/29 04:18:41;;;;;;;1.33;0.50;;;28.50;14.70;;;;;;5073054;28;20676;-71
2022/10/29 04:21:09;;;;;;;2.87;0.30;;;28.70;16.00;;;;;;5072972;28;20575;-71
2022/10/29 04:23:36;;;;;;;2.97;0.40;;;28.50;14.80;;;;;;5072993;28;20183;-73
2022/10/29 04:26:04;;;;;;;0.20;0.20;;;28.70;16.20;;;;;;5072573;28;20275;-71
2022/10/29 04:28:31;;;;;;;1.20;0.60;;;28.70;13.80;;;;;;5033907;28;20189;-71
2022/10/29 04:31:04;;;;;;;2.00;0.40;;;28.50;14.10;;;;;;5033131;28;20258;-71
2022/10/29 04:33:32;;;;;;;0.93;0.40;;;28.70;13.50;;;;;;5040380;28;20660;-71
2022/10/29 04:35:59;;;;;;;0.87;0.43;;;28.60;12.00;;;;;;5073270;28;20183;-70
2022/10/29 04:38:30;;;;;;;0.87;0.43;;;28.60;12.00;;;;;;5073182;28;20263;-71
2022/10/29 04:41:01;;;;;;;3.87;0.60;;;28.60;12.60;;;;;;5072945;28;20623;-71
2022/10/29 04:43:29;;;;;;;0.40;0.30;;;28.80;14.70;;;;;;5072334;28;20221;-71
2022/10/29 04:45:58;;;;;;;0.60;0.37;;;28.90;14.80;;;;;;5072822;28;20225;-71
2022/10/29 04:48:27;;;;;;;0.40;0.30;;;28.70;11.70;;;;;;5072916;28;20275;-72
2022/10/29 04:50:54;;;;;;;2.63;0.57;;;28.60;13.00;;;;;;5072784;28;20559;-72
2022/10/29 04:53:22;;;;;;;0.27;0.27;;;28.70;15.30;;;;;;5072481;28;20675;-70
2022/10/29 04:55:49;;;;;;;0.60;0.47;;;28.80;13.40;;;;;;5072664;28;20188;-70
2022/10/29 04:58:19;;;;;;;0.80;0.40;;;28.80;15.40;;;;;;5072784;28;20640;-71
2022/10/29 05:00:46;;;;;;;0.30;0.20;;;28.30;14.00;;;;;;5072619;28;20231;-70
2022/10/29 05:03:14;;;;;;;0.77;0.30;;;28.50;14.50;;;;;;5072152;28;20527;-70
2022/10/29 05:05:41;;;;;;;2.20;0.50;;;28.60;14.30;;;;;;5071926;28;20182;-71
2022/10/29 05:08:11;;;;;;;0.60;0.30;;;28.30;13.70;;;;;;5072647;28;20164;-73
2022/10/29 05:10:39;;;;;;;2.77;0.50;;;28.30;14.00;;;;;;5072812;28;20231;-71
2022/10/29 05:13:10;;;;;;;2.60;0.30;;;28.10;14.00;;;;;;5072270;28;20187;-71
2022/10/29 05:15:38;;;;;;;3.33;0.40;;;28.00;14.50;;;;;;5072909;28;20273;-72
2022/10/29 05:18:06;;;;;;;16.33;1.00;;;27.90;15.40;;;;;;5075859;28;20259;-70
2022/10/29 05:20:35;;;;;;;6.93;0.60;;;28.10;16.50;;;;;;5072635;28;20220;-70
2022/10/29 05:23:07;;;;;;;2.63;0.43;;;28.20;16.10;;;;;;5072908;28;20178;-70
2022/10/29 05:25:36;;;;;;;2.33;0.40;;;28.30;14.80;;;;;;5072479;28;20179;-70
2022/10/29 05:28:12;;;;;;;2.17;0.30;;;28.20;12.70;;;;;;5072286;28;20620;-70
2022/10/29 05:30:40;;;;;;;3.60;0.50;;;27.90;13.10;;;;;;5072136;28;20262;-70
2022/10/29 05:33:09;;;;;;;2.77;0.50;;;27.80;13.20;;;;;;5071799;28;20183;-70
2022/10/29 05:35:37;;;;;;;0.27;0.20;;;27.60;13.50;;;;;;5070679;28;20183;-70
2022/10/29 05:38:05;;;;;;;0.60;0.37;;;27.50;13.90;;;;;;5071378;28;20354;-71
2022/10/29 05:40:32;;;;;;;2.33;0.70;;;27.30;14.20;;;;;;5071910;28;20210;-71
2022/10/29 05:43:00;;;;;;;1.83;0.63;;;27.40;14.90;;;;;;5071713;28;20172;-71
2022/10/29 05:45:27;;;;;;;1.80;0.40;;;27.30;15.50;;;;;;5071535;28;20207;-71
2022/10/29 05:48:02;;;;;;;1.20;0.30;;;27.60;16.10;;;;;;5071769;28;20567;-71
2022/10/29 05:50:33;;;;;;;2.20;0.70;;;27.60;14.70;;;;;;5071861;28;20250;-70
2022/10/29 05:53:03;;;;;;;2.40;0.70;;;27.40;15.70;;;;;;5053334;28;20380;-70
2022/10/29 05:55:32;;;;;;;2.33;0.40;;;27.50;15.80;;;;;;5051565;28;20179;-70
2022/10/29 05:58:04;;;;;;;0.23;0.23;;;27.40;15.70;;;;;;5051593;28;20219;-70
2022/10/29 06:00:34;;;;;;;0.30;0.20;;;27.30;15.30;;;;;;5051382;28;20267;-70
2022/10/29 06:06:23;;;;;;;1.30;0.70;;;27.30;16.30;;;;;;5051049;28;20187;-70
2022/10/29 06:08:51;;;;;;;3.33;0.70;;;27.30;16.60;;;;;;5051763;28;20619;-70
2022/10/29 06:11:18;;;;;;;0.50;0.40;;;27.50;16.80;;;;;;5051667;28;20177;-71
2022/10/29 06:13:45;;;;;;;2.90;0.30;;;27.60;18.70;;;;;;5051639;28;20180;-71
2022/10/29 06:16:13;;;;;;;1.40;0.30;;;27.40;16.50;;;;;;5051727;28;20986;-71
2022/10/29 06:18:40;;;;;;;1.50;0.50;;;27.10;15.60;;;;;;5055411;28;20177;-71
2022/10/29 06:21:08;;;;;;;2.27;0.50;;;27.10;15.90;;;;;;5055599;28;20219;-71
2022/10/29 06:23:35;;;;;;;3.23;0.50;;;27.00;15.40;;;;;;5055435;28;20181;-71
2022/10/29 06:26:02;;;;;;;0.33;0.30;;;26.90;16.20;;;;;;5055426;28;20173;-71
2022/10/29 06:28:30;;;;;;;0.37;0.30;;;26.80;16.40;;;;;;5055782;28;20622;-71
2022/10/29 06:30:57;;;;;;;2.80;0.43;;;26.80;16.40;;;;;;5055591;28;20176;-71
2022/10/29 06:33:25;;;;;;;2.00;0.40;;;26.80;17.40;;;;;;5055702;28;20524;-71
2022/10/29 06:35:57;;;;;;;1.17;0.40;;;27.00;18.90;;;;;;5055606;28;20184;-72
2022/10/29 06:38:24;;;;;;;1.33;0.60;;;26.90;20.60;;;;;;5055527;28;20168;-71
2022/10/29 06:40:53;;;;;;;0.70;0.40;;;26.60;20.60;;;;;;5055290;28;20678;-72
2022/10/29 06:43:20;;;;;;;1.77;0.50;;;26.50;20.40;;;;;;5055435;28;20180;-72
2022/10/29 06:45:49;;;;;;;1.23;0.80;;;26.40;20.70;;;;;;5053672;28;20173;-71
2022/10/29 06:48:17;;;;;;;5.13;0.80;;;26.10;20.70;;;;;;5055107;28;20181;-70
2022/10/29 06:50:45;;;;;;;0.33;0.30;;;25.90;21.50;;;;;;5054945;28;20215;-71
2022/10/29 06:53:14;;;;;;;2.00;0.50;;;25.80;21.70;;;;;;5055153;28;20184;-70
2022/10/29 06:55:42;;;;;;;1.80;0.73;;;25.90;22.10;;;;;;5055100;28;20697;-70
2022/10/29 06:58:14;;;;;;;3.67;0.50;;;25.90;21.50;;;;;;5055022;28;20705;-70
2022/10/29 07:00:43;;;;;;;1.60;0.53;;;25.60;21.60;;;;;;5054660;28;20238;-70
2022/10/29 07:03:13;;;;;;;3.23;0.73;;;25.40;21.70;;;;;;5056500;28;20175;-69
2022/10/29 07:05:41;;;;;;;1.60;0.50;;;25.60;22.10;;;;;;5058932;28;20391;-69
2022/10/29 07:08:09;;;;;;;1.63;0.40;;;25.60;21.90;;;;;;5055052;28;20268;-69
2022/10/29 07:10:37;;;;;;;2.67;0.60;;;25.50;22.00;;;;;;5051845;28;20649;-69
2022/10/29 07:13:05;;;;;;;2.80;0.60;;;25.30;22.10;;;;;;5055873;28;20701;-69
2022/10/29 07:15:33;;;;;;;1.30;0.43;;;25.20;21.80;;;;;;5054104;28;20247;-70
2022/10/29 07:18:05;;;;;;;0.77;0.47;;;25.20;22.10;;;;;;5054013;28;20260;-71
2022/10/29 07:20:38;;;;;;;2.57;0.50;;;25.30;21.60;;;;;;5054062;28;20212;-70
2022/10/29 07:23:06;;;;;;;3.10;1.10;;;25.40;22.80;;;;;;5052698;28;20591;-70
2022/10/29 07:25:36;;;;;;;1.90;1.00;;;25.50;23.60;;;;;;5054618;28;20650;-70
2022/10/29 07:28:16;;;;;;;3.90;1.10;;;25.20;22.30;;;;;;5052504;28;20199;-69
2022/10/29 07:30:44;;;;;;;3.27;0.87;;;25.10;22.70;;;;;;5051404;28;20181;-70
2022/10/29 07:33:12;;;;;;;3.30;0.70;;;24.70;22.60;;;;;;5055149;28;20195;-70
2022/10/29 07:35:40;;;;;;;3.33;0.60;;;24.70;23.00;;;;;;5054368;28;20172;-69
2022/10/29 07:38:11;;;;;;;2.13;0.60;;;24.60;23.40;;;;;;5054487;28;20627;-69
2022/10/29 07:40:45;;;;;;;1.77;1.27;;;24.60;23.30;;;;;;5054272;28;20624;-69
2022/10/29 07:43:13;;;;;;;1.10;0.93;;;24.50;23.40;;;;;;5054864;28;20188;-69
2022/10/29 07:45:45;;;;;;;6.87;0.70;;;24.40;23.70;;;;;;5054209;28;20187;-69
2022/10/29 07:48:13;;;;;;;1.93;0.50;;;24.10;23.30;;;;;;5053909;28;20681;-70
2022/10/29 07:50:41;;;;;;;2.27;0.53;;;24.00;23.70;;;;;;5055342;28;20181;-69
2022/10/29 07:53:09;;;;;;;3.00;0.70;;;23.90;24.40;;;;;;5057784;28;20187;-70
2022/10/29 07:55:37;;;;;;;2.90;0.77;;;23.70;24.50;;;;;;5054974;28;20184;-69
2022/10/29 07:58:10;;;;;;;0.50;0.50;;;23.50;25.70;;;;;;5055595;28;20203;-70
2022/10/29 08:00:40;;;;;;;1.60;0.50;;;23.20;24.90;;;;;;5055073;28;20236;-70
2022/10/29 08:03:12;;;;;;;2.23;0.73;;;23.10;25.60;;;;;;5057537;28;20187;-69
2022/10/29 08:05:41;;;;;;;1.20;0.57;;;22.90;26.50;;;;;;5053380;28;20196;-70
2022/10/29 08:08:09;;;;;;;3.67;0.60;;;22.80;27.50;;;;;;5055752;28;20173;-70
2022/10/29 08:10:37;;;;;;;2.10;0.70;;;22.70;27.10;;;;;;5052096;28;20169;-70
2022/10/29 08:13:05;;;;;;;0.70;0.50;;;22.60;27.30;;;;;;5056416;28;20172;-69
2022/10/29 08:15:34;;;;;;;1.67;0.70;;;22.60;28.20;;;;;;5053518;28;20181;-70
2022/10/29 08:18:08;;;;;;;1.43;0.70;;;22.50;28.10;;;;;;5052965;28;20180;-70
2022/10/29 08:20:36;;;;;;;3.20;0.90;;;22.40;28.60;;;;;;5056114;28;20216;-71
2022/10/29 08:23:04;;;;;;;1.77;0.60;;;22.30;28.60;;;;;;5057050;28;20184;-71
2022/10/29 08:25:32;;;;;;;3.70;0.60;;;22.10;29.60;;;;;;5073413;28;20180;-71
2022/10/29 08:28:01;;;;;;;3.17;0.70;;;22.00;29.70;;;;;;5072372;28;20716;-71
2022/10/29 08:30:31;;;;;;;1.57;0.50;;;21.90;29.80;;;;;;5073353;28;20725;-71
2022/10/29 08:32:58;;;;;;;4.90;0.90;;;21.70;30.60;;;;;;5072911;28;20294;-70
2022/10/29 08:35:27;;;;;;;0.57;0.53;;;21.70;31.00;;;;;;5073258;28;20211;-70
2022/10/29 08:37:55;;;;;;;1.93;0.70;;;21.70;32.70;;;;;;5073006;28;20233;-70
2022/10/29 08:40:35;;;;;;;5.50;0.87;;;21.50;33.80;;;;;;5072111;28;20176;-70
2022/10/29 08:43:27;;;;;;;1.13;0.60;;;21.40;33.90;;;;;;5072534;28;20191;-69
2022/10/29 08:45:56;;;;;;;4.03;0.80;;;21.40;35.90;;;;;;5072816;28;20214;-70
2022/10/29 08:48:33;;;;;;;2.10;0.70;;;21.30;35.70;;;;;;5072608;28;20633;-68
2022/10/29 08:51:08;;;;;;;3.80;0.50;;;21.20;36.00;;;;;;5072924;28;20210;-71
2022/10/29 08:53:49;;;;;;;3.57;0.57;;;21.20;36.70;;;;;;5072828;28;20185;-70
2022/10/29 08:56:33;;;;;;;2.37;0.60;;;21.10;37.40;;;;;;5073027;28;20270;-70
2022/10/29 08:59:12;;;;;;;0.90;0.70;;;21.00;38.20;;;;;;5073040;28;20235;-70
2022/10/29 09:01:40;;;;;;;1.70;0.80;;;20.90;38.90;;;;;;5072517;28;20732;-70
2022/10/29 09:04:25;;;;;;;3.20;0.87;;;20.80;39.30;;;;;;5067004;28;20230;-70
2022/10/29 09:06:59;;;;;;;1.47;0.90;;;20.80;38.60;;;;;;5055451;28;20183;-70
2022/10/29 09:09:37;;;;;;;3.70;1.30;;;20.80;39.90;;;;;;5055339;28;20188;-70
2022/10/29 09:12:50;;;;;;;1.80;0.90;;;20.70;40.60;;;;;;5057964;28;20176;-69
2022/10/29 09:15:40;;;;;;;5.33;1.03;;;20.70;40.10;;;;;;5056978;28;20230;-71
2022/10/29 09:18:18;;;;;;;1.93;0.70;;;20.60;40.50;;;;;;5076545;28;20275;-71
2022/10/29 09:21:25;;;;;;;3.63;1.00;;;20.50;40.20;;;;;;5074158;28;20672;-70
2022/10/29 09:24:02;;;;;;;1.97;0.90;;;20.50;40.90;;;;;;5073624;28;20337;-71
2022/10/29 09:26:36;;;;;;;2.10;0.70;;;20.50;40.70;;;;;;5074007;28;20232;-70
2022/10/29 09:29:06;;;;;;;3.73;0.90;;;20.40;40.70;;;;;;5073577;28;20197;-69
2022/10/29 09:31:54;;;;;;;2.97;1.00;;;20.30;40.60;;;;;;5073443;28;20648;-69
2022/10/29 09:34:52;;;;;;;3.57;0.87;;;20.40;40.20;;;;;;5073663;28;20191;-70
2022/10/29 09:37:40;;;;;;;2.77;0.60;;;20.30;40.80;;;;;;5071715;28;20192;-70
2022/10/29 09:40:33;;;;;;;14.27;1.10;;;20.30;40.70;;;;;;5073958;28;20629;-70
2022/10/29 09:43:14;;;;;;;1.53;0.90;;;20.20;41.40;;;;;;5073555;28;20220;-71
2022/10/29 09:45:49;;;;;;;1.50;0.60;;;20.20;41.50;;;;;;5074630;28;20203;-70
2022/10/29 09:48:34;;;;;;;3.80;0.87;;;20.10;42.20;;;;;;5077679;28;20178;-70
2022/10/29 09:51:20;;;;;;;2.17;0.73;;;20.10;42.80;;;;;;5076846;28;20183;-70
2022/10/29 09:53:50;;;;;;;4.83;0.60;;;20.00;43.00;;;;;;5074766;28;20180;-68
2022/10/29 09:56:18;;;;;;;1.60;0.70;;;20.00;43.40;;;;;;5075165;28;20251;-69
2022/10/29 09:58:54;;;;;;;2.00;0.87;;;19.90;43.80;;;;;;5074226;28;20190;-70
2022/10/29 10:01:22;;;;;;;1.27;0.60;;;19.90;45.10;;;;;;5073621;28;20235;-69
2022/10/29 10:04:03;;;;;;;1.33;0.77;;;19.80;45.70;;;;;;5074289;28;20203;-69
2022/10/29 10:06:55;;;;;;;0.80;0.70;;;19.70;46.20;;;;;;5079212;28;20675;-69
2022/10/29 10:09:24;;;;;;;6.93;0.90;;;19.60;48.20;;;;;;5075804;28;20554;-70
2022/10/29 10:11:53;;;;;;;2.13;0.80;;;19.60;48.80;;;;;;5090483;28;20188;-69
2022/10/29 10:14:23;;;;;;;2.77;0.97;;;19.50;50.10;;;;;;5074973;28;20225;-69
2022/10/29 10:17:02;;;;;;;3.50;0.90;;;19.50;50.80;;;;;;5075354;28;20176;-69
2022/10/29 10:19:32;;;;;;;3.43;0.90;;;19.30;52.40;;;;;;5074802;28;20199;-69
2022/10/29 10:22:15;;;;;;;5.40;1.77;;;19.20;54.60;;;;;;5074565;28;20752;-69
2022/10/29 10:24:43;;;;;;;1.90;0.83;;;19.20;55.40;;;;;;5075138;28;20167;-69
2022/10/29 10:27:20;;;;;;;1.63;0.70;;;19.20;55.30;;;;;;5074576;28;20629;-69
2022/10/29 10:30:22;;;;;;;1.23;0.93;;;19.30;58.90;;;;;;5074959;28;20182;-69
2022/10/29 10:32:50;;;;;;;0.40;0.40;;;19.20;58.00;;;;;;5052385;28;20186;-70
2022/10/29 10:35:32;;;;;;;1.97;0.80;;;19.10;59.20;;;;;;5074560;28;20179;-69
2022/10/29 10:38:08;;;;;;;2.07;1.10;;;19.10;65.30;;;;;;5090090;28;20178;-69
2022/10/29 10:40:36;;;;;;;3.13;1.20;;;19.10;61.30;;;;;;5074215;28;20207;-69
2022/10/29 10:43:04;;;;;;;3.80;1.10;;;19.00;65.00;;;;;;5074805;28;20176;-69
2022/10/29 10:45:39;;;;;;;1.10;0.70;;;19.00;64.80;;;;;;5073838;28;20658;-68
2022/10/29 10:48:10;;;;;;;6.17;1.17;;;18.90;68.50;;;;;;5073839;28;20187;-69
2022/10/29 10:50:38;;;;;;;2.23;1.17;;;18.90;70.10;;;;;;5073790;28;20195;-69
2022/10/29 10:53:19;;;;;;;1.90;1.07;;;18.80;72.20;;;;;;5073953;28;20172;-69
2022/10/29 10:55:53;;;;;;;2.93;0.87;;;18.70;73.70;;;;;;5073626;28;20217;-69
2022/10/29 10:58:26;;;;;;;5.67;1.20;;;18.70;77.70;;;;;;5072854;28;20251;-69
2022/10/29 11:01:17;;;;;;;1.43;0.83;;;18.70;77.90;;;;;;5072468;28;20240;-68
2022/10/29 11:04:11;;;;;;;2.33;0.90;;;18.70;79.70;;;;;;5057306;28;20200;-69
2022/10/29 11:06:47;;;;;;;3.27;0.93;;;18.70;79.60;;;;;;5053052;28;20191;-68
2022/10/29 11:09:24;;;;;;;1.90;0.80;;;18.60;83.90;;;;;;5056312;28;20211;-69
2022/10/29 11:12:21;;;;;;;2.87;1.10;;;18.50;86.50;;;;;;5056387;28;20222;-68
2022/10/29 11:14:58;;;;;;;1.93;1.17;;;18.50;90.40;;;;;;5051211;28;20655;-69
2022/10/29 11:17:51;;;;;;;3.90;0.90;;;18.40;91.50;;;;;;5056120;28;20524;-69
2022/10/29 11:20:32;;;;;;;1.87;0.70;;;18.40;93.20;;;;;;5056129;28;20666;-68
2022/10/29 11:23:21;;;;;;;2.40;0.83;;;18.40;95.10;;;;;;5055883;28;20202;-68
2022/10/29 11:26:13;;;;;;;3.33;0.90;;;18.30;95.70;;;;;;5055897;28;20187;-68
2022/10/29 11:29:15;;;;;;;2.53;0.90;;;18.30;98.40;;;;;;5056202;28;20172;-69
2022/10/29 11:31:53;;;;;;;1.93;0.90;;;18.30;99.90;;;;;;5052753;28;20188;-69
2022/10/29 11:34:42;;;;;;;2.80;1.03;;;18.20;99.90;;;;;;5056109;28;20180;-69
2022/10/29 11:37:55;;;;;;;2.40;0.93;;;18.20;99.90;;;;;;5056110;28;20199;-69
2022/10/29 11:40:30;;;;;;;1.63;1.20;;;18.20;99.90;;;;;;5041447;28;20192;-69
2022/10/29 11:43:00;;;;;;;2.23;1.50;;;18.20;99.90;;;;;;5071241;28;20184;-69
2022/10/29 11:45:54;;;;;;;3.80;1.30;;;18.20;99.90;;;;;;5055493;28;20612;-69
2022/10/29 11:48:28;;;;;;;3.33;1.57;;;18.20;99.90;;;;;;5055780;28;20173;-69
2022/10/29 11:51:21;;;;;;;1.83;1.10;;;18.20;99.90;;;;;;5055516;28;20176;-69
2022/10/29 11:54:00;;;;;;;1.60;0.90;;;18.20;99.90;;;;;;5055925;28;20169;-69
2022/10/29 11:56:28;;;;;;;1.83;0.93;;;18.20;99.90;;;;;;5055678;28;20554;-69
2022/10/29 11:59:21;;;;;;;1.70;1.00;;;18.30;99.90;;;;;;5055242;28;20244;-69
2022/10/29 12:02:04;;;;;;;1.83;1.00;;;18.30;99.90;;;;;;5055263;28;20291;-69
2022/10/29 12:04:58;;;;;;;2.90;1.10;;;18.30;99.90;;;;;;5055829;28;20278;-69
2022/10/29 12:07:51;;;;;;;6.07;1.67;;;18.20;99.90;;;;;;5045121;28;20193;-69
2022/10/29 12:10:37;;;;;;;2.47;1.00;;;18.10;99.90;;;;;;5055927;28;20274;-69
2022/10/29 12:13:14;;;;;;;1.90;1.00;;;18.00;99.90;;;;;;5055754;28;20173;-69
2022/10/29 12:16:08;;;;;;;4.37;0.90;;;18.00;99.90;;;;;;5055178;28;20204;-69
2022/10/29 12:18:39;;;;;;;2.97;1.13;;;17.90;99.90;;;;;;5055285;28;20165;-69
2022/10/29 12:21:22;;;;;;;2.77;1.33;;;17.90;99.90;;;;;;5054919;28;20239;-69
2022/10/29 12:24:13;;;;;;;4.67;1.00;;;18.00;99.90;;;;;;5055109;28;20637;-69
2022/10/29 12:26:54;;;;;;;2.70;1.00;;;18.00;99.90;;;;;;5051892;28;20184;-69
2022/10/29 12:29:52;;;;;;;1.90;0.93;;;18.00;99.90;;;;;;5054768;28;20259;-69
2022/10/29 12:32:31;;;;;;;1.97;0.93;;;18.00;99.90;;;;;;5054817;28;20264;-69
2022/10/29 12:35:33;;;;;;;3.07;1.07;;;18.00;99.90;;;;;;5054674;28;20179;-69
2022/10/29 12:38:22;;;;;;;2.20;1.10;;;18.00;99.90;;;;;;5055013;28;20168;-69
2022/10/29 12:40:58;;;;;;;2.10;1.27;;;17.90;99.90;;;;;;5054854;28;20240;-68
2022/10/29 12:43:35;;;;;;;2.80;1.10;;;17.90;99.90;;;;;;5054727;28;20165;-69
2022/10/29 12:46:12;;;;;;;4.60;1.27;;;17.90;99.90;;;;;;5054383;28;20650;-69
2022/10/29 12:49:05;;;;;;;1.80;0.87;;;17.70;99.90;;;;;;5054447;28;20172;-69
2022/10/29 12:51:49;;;;;;;5.07;0.90;;;17.60;99.90;;;;;;5054246;28;20181;-69
2022/10/29 12:54:27;;;;;;;4.07;0.93;;;17.60;99.90;;;;;;5054646;28;20238;-69
2022/10/29 12:56:58;;;;;;;3.37;1.00;;;17.60;99.90;;;;;;5054983;28;20222;-69
2022/10/29 12:59:36;;;;;;;2.47;0.90;;;17.60;99.90;;;;;;5054242;28;20565;-69
2022/10/29 13:02:37;;;;;;;1.97;0.80;;;17.60;99.90;;;;;;5054011;28;20766;-69
2022/10/29 13:05:08;;;;;;;4.33;0.93;;;17.50;99.90;;;;;;5054376;28;20256;-69
2022/10/29 13:07:38;;;;;;;1.93;0.80;;;17.50;99.90;;;;;;5053847;28;20184;-69
2022/10/29 13:10:32;;;;;;;2.27;1.00;;;17.40;99.90;;;;;;5053944;28;20179;-69
2022/10/29 13:13:06;;;;;;;1.57;0.77;;;17.20;99.90;;;;;;5054353;28;20260;-69
2022/10/29 13:15:34;;;;;;;4.80;0.80;;;17.20;99.90;;;;;;5054200;28;20231;-69
2022/10/29 13:18:26;;;;;;;2.57;0.77;;;17.20;99.90;;;;;;5054635;28;20187;-69
2022/10/29 13:20:55;;;;;;;1.50;1.07;;;17.10;99.90;;;;;;5053720;28;20212;-69
2022/10/29 13:23:23;;;;;;;3.67;0.90;;;17.10;99.90;;;;;;5054286;28;20177;-69
2022/10/29 13:26:03;;;;;;;2.23;1.17;;;17.10;99.90;;;;;;5053919;28;20196;-69